Terminal Aerodrome Forecast
Issued by NWS Denver/Boulder, CO

Home | Current Version | Previous Version | Text Only | Print | Product List | Glossary On
Versions: 1 2 3 4 5 6 7 8 9 10 11 12 13 14 15 16 17 18 19 20 21 22 23 24 25 26 27 28 29 30 31 32 33 34 35 36 37 38 39 40 41 42 43 44 45 46 47 48 49 50
000
FTUS45 KBOU 010305 AAA
TAFDEN
TAF AMD
KDEN 010305Z 0103/0206 24012KT P6SM FEW080 BKN120
     FM010400 30012KT P6SM VCTS SCT080CB BKN120
      TEMPO 0104/0106 VRB16G24KT BKN080CB
     FM010900 28007KT P6SM SCT120 BKN220
     FM012000 35009KT P6SM SCT080 BKN220 PROB30 0122/0202 VRB20G30KT
      -TSRA BKN080CB=

USA.gov is the U.S. government's official web portal to all federal, state and local government web resources and services.